createdAt,value
2019-02-28T03:08:04.067Z,21.4
2019-02-28T03:08:46.041Z,21.4
2019-02-28T03:09:35.749Z,21.4
2019-02-28T03:10:26.263Z,21.4
2019-02-28T03:11:15.801Z,21.4
2019-02-28T03:12:06.169Z,21.4
2019-02-28T03:12:55.323Z,21.3
2019-02-28T03:13:51.024Z,21.3
2019-02-28T03:14:35.266Z,21.3
2019-02-28T03:15:33.595Z,21.3
2019-02-28T03:16:16.326Z,21.3
2019-02-28T03:17:15.289Z,21.3
2019-02-28T03:17:56.301Z,21.3
2019-02-28T03:18:46.077Z,21.3
2019-02-28T03:19:41.317Z,21.3
2019-02-28T03:20:26.169Z,21.3
2019-02-28T03:21:21.942Z,21.4
2019-02-28T03:22:06.418Z,21.4
2019-02-28T03:22:56.305Z,21.4
2019-02-28T03:23:46.786Z,21.4
2019-02-28T03:24:36.532Z,21.4
2019-02-28T03:25:34.583Z,21.4
2019-02-28T03:26:17.201Z,21.4
2019-02-28T03:27:07.071Z,21.4
2019-02-28T03:28:03.248Z,21.4
2019-02-28T03:28:46.712Z,21.4
2019-02-28T03:29:44.792Z,21.4
2019-02-28T03:30:40.459Z,21.3
2019-02-28T03:31:22.413Z,21.4
2019-02-28T03:32:07.145Z,21.4
2019-02-28T03:32:57.280Z,21.3
2019-02-28T03:33:48.266Z,21.3
2019-02-28T03:34:38.377Z,21.3
2019-02-28T03:35:45.402Z,21.3
2019-02-28T03:36:23.393Z,21.3
2019-02-28T03:37:07.643Z,21.3
2019-02-28T03:37:57.982Z,21.3
2019-02-28T03:38:56.608Z,21.3
2019-02-28T03:39:36.993Z,21.3
2019-02-28T03:40:27.798Z,21.4
2019-02-28T03:41:24.562Z,21.4
2019-02-28T03:42:07.971Z,21.4
2019-02-28T03:43:07.580Z,21.4
2019-02-28T03:43:50.555Z,21.4
2019-02-28T03:44:38.618Z,21.4
2019-02-28T03:45:37.930Z,21.4
2019-02-28T03:46:18.485Z,21.4
2019-02-28T03:47:07.740Z,21.4
2019-02-28T03:48:06.243Z,21.4
2019-02-28T03:48:48.102Z,21.4
2019-02-28T03:49:38.465Z,21.3
2019-02-28T03:50:29.759Z,21.4
2019-02-28T03:51:19.167Z,21.4
2019-02-28T03:52:13.800Z,21.3
2019-02-28T03:52:58.952Z,21.3
2019-02-28T03:53:56.900Z,21.3
2019-02-28T03:54:38.546Z,21.3
2019-02-28T03:55:28.789Z,21.3
2019-02-28T03:56:21.828Z,21.3
2019-02-28T03:57:09.245Z,21.3
2019-02-28T03:58:07.550Z,21.3
2019-02-28T03:58:49.335Z,21.3
2019-02-28T03:59:39.150Z,21.3
2019-02-28T04:00:38.383Z,21.4
2019-02-28T04:01:19.701Z,21.3
2019-02-28T04:02:09.232Z,21.4
2019-02-28T04:03:05.496Z,21.4
2019-02-28T04:03:49.433Z,21.3
2019-02-28T04:04:39.781Z,21.3
2019-02-28T04:05:34.702Z,21.3
2019-02-28T04:06:19.657Z,21.3
2019-02-28T04:07:17.428Z,21.3
2019-02-28T04:08:01.163Z,21.3
2019-02-28T04:08:50.081Z,21.3
2019-02-28T04:09:47.294Z,21.3
2019-02-28T04:10:29.959Z,21.3
2019-02-28T04:11:19.993Z,21.3
2019-02-28T04:12:15.382Z,21.3
2019-02-28T04:13:00.106Z,21.3
2019-02-28T04:13:58.147Z,21.3
2019-02-28T04:14:40.321Z,21.4
2019-02-28T04:15:30.288Z,21.3
2019-02-28T04:16:19.721Z,21.4
2019-02-28T04:17:10.652Z,21.4
2019-02-28T04:18:07.417Z,21.4
2019-02-28T04:18:53.441Z,21.4
2019-02-28T04:19:39.933Z,21.4
2019-02-28T04:20:39.616Z,21.4
2019-02-28T04:21:20.906Z,21.3
2019-02-28T04:22:10.150Z,21.3
2019-02-28T04:23:06.890Z,21.3
2019-02-28T04:23:51.100Z,21.3
2019-02-28T04:24:39.722Z,21.3
2019-02-28T04:25:31.165Z,21.3
2019-02-28T04:26:21.223Z,21.3
2019-02-28T04:27:14.759Z,21.3
2019-02-28T04:28:01.188Z,21.3
2019-02-28T04:28:59.069Z,21.3
2019-02-28T04:29:41.185Z,21.3
2019-02-28T04:30:31.892Z,21.3
2019-02-28T04:31:26.629Z,21.3
2019-02-28T04:32:11.094Z,21.3
2019-02-28T04:33:07.577Z,21.3
2019-02-28T04:33:51.709Z,21.3
2019-02-28T04:34:41.296Z,21.3
2019-02-28T04:35:32.529Z,21.3
2019-02-28T04:36:22.023Z,21.3
2019-02-28T04:37:16.432Z,21.3
2019-02-28T04:38:02.333Z,21.3
2019-02-28T04:38:54.959Z,21.3
2019-02-28T04:39:41.286Z,21.3
2019-02-28T04:40:34.162Z,21.3
2019-02-28T04:41:22.236Z,21.3
2019-02-28T04:42:13.071Z,21.3
2019-02-28T04:43:02.318Z,21.3
2019-02-28T04:43:51.336Z,21.3
2019-02-28T04:44:42.434Z,21.3
2019-02-28T04:45:32.761Z,21.3
2019-02-28T04:46:22.243Z,21.3
2019-02-28T04:47:13.081Z,21.3
2019-02-28T04:48:01.333Z,21.4
2019-02-28T04:48:54.318Z,21.4
2019-02-28T04:49:41.751Z,21.3
2019-02-28T04:50:38.486Z,21.4
2019-02-28T04:51:21.283Z,21.4
2019-02-28T04:52:16.283Z,21.4
2019-02-28T04:53:03.040Z,21.4
2019-02-28T04:53:56.988Z,21.4
2019-02-28T04:54:42.270Z,21.4
2019-02-28T04:55:40.770Z,21.4
2019-02-28T04:56:22.363Z,21.4
2019-02-28T04:57:13.543Z,21.4
2019-02-28T04:58:03.350Z,21.4
2019-02-28T04:58:52.847Z,21.3
2019-02-28T04:59:43.731Z,21.3
2019-02-28T05:00:33.507Z,21.3
2019-02-28T05:01:23.834Z,21.3
2019-02-28T05:02:13.310Z,21.3
2019-02-28T05:03:03.668Z,21.3
2019-02-28T05:03:55.352Z,21.3
2019-02-28T05:04:43.270Z,21.3
2019-02-28T05:06:28.072Z,21.1
2019-02-28T05:07:13.672Z,20.9
2019-02-28T05:08:10.010Z,20.7
2019-02-28T05:08:53.947Z,20.4
2019-02-28T05:09:49.312Z,20.4
2019-02-28T05:10:33.905Z,20.3
2019-02-28T05:11:24.040Z,20.1
2019-02-28T05:12:13.466Z,20.1
2019-02-28T05:13:04.097Z,20
2019-02-28T05:13:56.285Z,20
2019-02-28T05:14:43.477Z,19.9
2019-02-28T05:15:42.960Z,19.8
2019-02-28T05:16:24.357Z,19.8
2019-02-28T05:17:13.302Z,19.8
2019-02-28T05:18:03.310Z,19.8
2019-02-28T05:18:54.795Z,19.9
2019-02-28T05:19:45.079Z,20
2019-02-28T05:20:36.929Z,20.1
2019-02-28T05:21:26.509Z,20.2
2019-02-28T05:22:14.417Z,20.2
2019-02-28T05:23:09.168Z,20.2
2019-02-28T05:23:54.829Z,20.1
2019-02-28T05:24:49.135Z,20.1
2019-02-28T05:25:35.209Z,20
2019-02-28T05:26:30.846Z,19.9
2019-02-28T05:27:14.193Z,19.8
2019-02-28T05:28:08.352Z,19.8
2019-02-28T05:28:54.618Z,19.6
2019-02-28T05:29:49.559Z,19.6
2019-02-28T05:30:34.839Z,19.4
2019-02-28T05:31:31.171Z,19.4
2019-02-28T05:32:15.106Z,19.3
2019-02-28T05:33:09.170Z,19.3
2019-02-28T05:33:55.231Z,19.3
2019-02-28T05:34:52.854Z,19.2
2019-02-28T05:35:35.378Z,19.1
2019-02-28T05:36:25.709Z,19.1
2019-02-28T05:37:19.714Z,19.1
2019-02-28T05:38:06.122Z,19.1
2019-02-28T05:39:02.398Z,19.2
2019-02-28T05:39:48.008Z,19.3
2019-02-28T05:40:42.523Z,19.3
2019-02-28T05:41:26.628Z,19.3
2019-02-28T05:42:15.567Z,19.3
2019-02-28T05:43:06.213Z,19.3
2019-02-28T05:43:55.636Z,19.4
2019-02-28T05:44:47.660Z,19.4
2019-02-28T05:45:36.548Z,19.4
2019-02-28T05:46:31.345Z,19.4
2019-02-28T05:47:16.195Z,19.4
2019-02-28T05:48:10.333Z,19.3
2019-02-28T05:48:56.041Z,19.3
2019-02-28T05:49:47.630Z,19.3
2019-02-28T05:50:36.355Z,19.3
2019-02-28T05:51:30.860Z,19.2
2019-02-28T05:52:16.782Z,19.1
2019-02-28T05:53:14.805Z,19.1
2019-02-28T05:53:57.483Z,19.1
2019-02-28T05:54:52.961Z,19.1
2019-02-28T05:55:38.207Z,19.1
2019-02-28T05:56:26.454Z,19.3
2019-02-28T05:57:17.350Z,19.4
2019-02-28T05:58:05.864Z,19.5
2019-02-28T05:58:58.807Z,19.6
2019-02-28T05:59:47.272Z,19.7
2019-02-28T06:00:44.252Z,19.8
2019-02-28T06:01:26.878Z,19.9
2019-02-28T06:02:26.674Z,19.9
2019-02-28T06:03:09.562Z,20
2019-02-28T06:05:54.874Z,20.2
2019-02-28T06:06:44.656Z,20.3
2019-02-28T06:07:36.538Z,20.3
2019-02-28T06:08:25.354Z,20.3
2019-02-28T06:09:20.492Z,20.4
2019-02-28T06:10:05.892Z,20.4
2019-02-28T06:11:04.310Z,20.6
2019-02-28T06:11:46.616Z,20.6
2019-02-28T06:12:35.857Z,20.6
2019-02-28T06:13:26.183Z,20.6
2019-02-28T06:14:16.270Z,20.6
2019-02-28T06:15:09.826Z,20.7
2019-02-28T06:15:56.146Z,20.6
2019-02-28T06:16:53.090Z,20.6
2019-02-28T06:17:36.353Z,20.6
2019-02-28T06:18:36.353Z,20.6
2019-02-28T06:19:16.307Z,20.7
2019-02-28T06:20:06.630Z,20.7
2019-02-28T06:20:59.113Z,20.7
2019-02-28T06:21:46.176Z,20.7
2019-02-28T06:22:42.223Z,20.6
2019-02-28T06:23:26.627Z,20.7
2019-02-28T06:24:20.136Z,20.6
2019-02-28T06:25:07.170Z,20.7
2019-02-28T06:26:04.958Z,20.8
2019-02-28T06:26:47.361Z,20.8
2019-02-28T06:27:55.320Z,20.8
2019-02-28T06:28:34.131Z,20.8
2019-02-28T06:29:17.592Z,20.8
2019-02-28T06:30:10.979Z,20.8
2019-02-28T06:30:57.105Z,20.8
2019-02-28T06:31:53.259Z,20.8
2019-02-28T06:32:36.992Z,20.8
2019-02-28T06:33:30.490Z,20.8
2019-02-28T06:34:17.082Z,20.8
2019-02-28T06:35:07.452Z,20.8
2019-02-28T06:36:00.721Z,20.8
2019-02-28T06:36:48.108Z,20.8
2019-02-28T06:37:43.834Z,20.8
2019-02-28T06:38:27.909Z,20.8
2019-02-28T06:39:19.689Z,20.8
2019-02-28T06:40:07.184Z,20.8
2019-02-28T06:40:57.218Z,20.8
2019-02-28T06:41:47.863Z,20.8
2019-02-28T06:42:37.654Z,20.8
2019-02-28T06:43:27.657Z,20.9
2019-02-28T06:44:18.293Z,20.9
2019-02-28T06:45:09.003Z,21
2019-02-28T06:45:57.556Z,21
2019-02-28T06:46:47.336Z,21
2019-02-28T06:47:40.021Z,21
2019-02-28T06:48:32.878Z,21
2019-02-28T06:49:18.938Z,21
2019-02-28T06:50:08.809Z,20.9
2019-02-28T06:50:57.664Z,20.9
2019-02-28T06:51:54.376Z,20.9
2019-02-28T06:52:38.408Z,20.9
2019-02-28T06:53:36.269Z,20.8
2019-02-28T06:54:18.416Z,20.8
2019-02-28T06:55:12.571Z,20.8
2019-02-28T06:55:59.085Z,20.8
2019-02-28T06:56:48.891Z,20.9
2019-02-28T06:57:39.515Z,20.9
2019-02-28T06:58:35.476Z,20.9
2019-02-28T06:59:18.469Z,20.9
2019-02-28T07:00:14.980Z,20.9
2019-02-28T07:00:59.784Z,21
2019-02-28T07:01:49.563Z,21
2019-02-28T07:02:38.252Z,21
2019-02-28T07:03:29.328Z,21.1
2019-02-28T07:06:02.500Z,21.1
2019-02-28T07:06:45.811Z,21.1
2019-02-28T07:07:35.233Z,21.1
2019-02-28T07:08:35.682Z,21.1
2019-02-28T07:09:16.202Z,21.1
2019-02-28T07:10:14.861Z,21
2019-02-28T07:10:56.129Z,21
2019-02-28T07:11:46.069Z,21
2019-02-28T07:12:39.609Z,21
2019-02-28T07:13:25.935Z,21
2019-02-28T07:14:20.778Z,21
2019-02-28T07:15:06.643Z,21.1
2019-02-28T07:16:05.826Z,21.1
2019-02-28T07:16:46.522Z,21.1
2019-02-28T07:17:36.812Z,21.1
2019-02-28T07:18:27.039Z,21.1
2019-02-28T07:19:16.326Z,21.1
2019-02-28T07:20:12.149Z,21.1
2019-02-28T07:20:57.029Z,21.1
2019-02-28T07:21:51.034Z,21.1
2019-02-28T07:22:36.600Z,21.1
2019-02-28T07:23:35.839Z,21.1
2019-02-28T07:24:17.264Z,21.1
2019-02-28T07:25:13.776Z,21
2019-02-28T07:25:58.732Z,21
2019-02-28T07:26:48.199Z,21
2019-02-28T07:27:36.876Z,21
2019-02-28T07:28:27.634Z,20.9
2019-02-28T07:29:19.112Z,21
2019-02-28T07:30:07.846Z,20.9
2019-02-28T07:30:58.144Z,20.9
2019-02-28T07:31:47.796Z,20.9
2019-02-28T07:32:41.846Z,20.9
2019-02-28T07:33:27.619Z,20.9
2019-02-28T07:34:27.319Z,20.9
2019-02-28T07:35:07.741Z,20.9
2019-02-28T07:35:57.500Z,20.9
2019-02-28T07:36:52.137Z,20.9
2019-02-28T07:37:38.177Z,20.9
2019-02-28T07:38:34.696Z,20.9
2019-02-28T07:39:18.013Z,20.9
2019-02-28T07:40:07.806Z,20.9
2019-02-28T07:40:58.049Z,21
2019-02-28T07:41:48.770Z,20.9
2019-02-28T07:42:44.969Z,21
2019-02-28T07:43:28.199Z,20.9
2019-02-28T07:44:25.372Z,20.9
2019-02-28T07:45:08.355Z,20.9
2019-02-28T07:45:58.977Z,20.9
2019-02-28T07:46:49.655Z,20.9
2019-02-28T07:47:38.815Z,20.9
2019-02-28T07:48:36.603Z,20.9
2019-02-28T07:49:18.189Z,20.9
2019-02-28T07:50:14.983Z,20.9
2019-02-28T07:51:00.260Z,20.9
2019-02-28T07:51:48.230Z,20.9
2019-02-28T07:52:40.983Z,20.9
2019-02-28T07:53:29.274Z,20.9
2019-02-28T07:54:25.285Z,20.9
2019-02-28T07:55:07.888Z,20.9
2019-02-28T07:55:59.097Z,20.9
2019-02-28T07:56:51.197Z,20.9
2019-02-28T07:57:39.260Z,20.9
2019-02-28T07:58:37.890Z,20.9
2019-02-28T07:59:18.750Z,20.9
2019-02-28T08:00:09.184Z,20.9
2019-02-28T08:01:00.937Z,20.9
2019-02-28T08:01:51.780Z,20.9
2019-02-28T08:02:46.625Z,20.9
2019-02-28T08:03:29.612Z,21
2019-02-28T08:04:26.004Z,20.9
2019-02-28T08:05:10.111Z,20.9
2019-02-28T08:06:06.819Z,20.9
2019-02-28T08:06:50.114Z,20.9
2019-02-28T08:07:39.922Z,20.9
2019-02-28T08:08:33.647Z,20.9
2019-02-28T08:09:19.704Z,20.9
2019-02-28T08:10:16.747Z,20.9
2019-02-28T08:11:00.386Z,20.9
2019-02-28T08:11:57.371Z,20.9
2019-02-28T08:12:40.496Z,20.9
2019-02-28T08:13:30.004Z,20.9
2019-02-28T08:14:20.707Z,20.9
2019-02-28T08:15:09.865Z,20.9
2019-02-28T08:16:06.449Z,20.9
2019-02-28T08:16:50.515Z,20.9
2019-02-28T08:17:49.178Z,20.9
2019-02-28T08:18:33.086Z,20.9
2019-02-28T08:19:27.006Z,20.9
2019-02-28T08:20:10.783Z,20.9
2019-02-28T08:21:00.594Z,20.9
2019-02-28T08:21:57.321Z,20.9
2019-02-28T08:22:40.399Z,20.9
2019-02-28T08:23:38.143Z,20.9
2019-02-28T08:24:20.991Z,20.9
2019-02-28T08:25:14.366Z,20.9
2019-02-28T08:26:00.344Z,20.9
2019-02-28T08:26:57.305Z,20.8
2019-02-28T08:27:40.441Z,20.8
2019-02-28T08:28:40.048Z,20.8
2019-02-28T08:29:20.575Z,20.8
2019-02-28T08:30:11.457Z,20.8
2019-02-28T08:31:02.883Z,20.9
2019-02-28T08:31:51.216Z,20.9
2019-02-28T08:32:51.058Z,20.9
2019-02-28T08:33:31.953Z,20.9
2019-02-28T08:34:28.708Z,20.9
2019-02-28T08:35:12.043Z,20.9
2019-02-28T08:36:02.080Z,20.9
2019-02-28T08:36:54.457Z,20.9
2019-02-28T08:37:41.897Z,20.9
2019-02-28T08:38:39.275Z,20.8
2019-02-28T08:39:23.438Z,20.9
2019-02-28T08:40:18.257Z,20.9
2019-02-28T08:41:02.413Z,20.8
2019-02-28T08:41:53.977Z,20.8
2019-02-28T08:42:45.902Z,20.8
2019-02-28T08:43:34.700Z,20.8
2019-02-28T08:44:29.188Z,20.8
2019-02-28T08:45:14.941Z,20.8
2019-02-28T08:46:15.164Z,20.8
2019-02-28T08:46:54.505Z,20.8
2019-02-28T08:47:42.947Z,20.8
2019-02-28T08:48:41.002Z,20.8
2019-02-28T08:49:22.485Z,20.8
2019-02-28T08:50:12.754Z,20.8
2019-02-28T08:51:03.747Z,20.8
2019-02-28T08:51:52.609Z,20.8
2019-02-28T08:52:50.231Z,20.8
2019-02-28T08:53:32.724Z,20.8
2019-02-28T08:54:30.532Z,20.7
2019-02-28T08:55:15.420Z,20.8
2019-02-28T08:56:02.992Z,20.7
2019-02-28T08:56:56.897Z,20.8
2019-02-28T08:57:42.709Z,20.8
2019-02-28T08:58:32.774Z,20.8
2019-02-28T08:59:29.697Z,20.8
2019-02-28T09:00:13.156Z,20.8
2019-02-28T09:01:08.155Z,20.8
2019-02-28T09:01:53.540Z,20.8
2019-02-28T09:02:44.047Z,20.8
2019-02-28T09:03:34.698Z,20.8
2019-02-28T09:04:23.693Z,20.8
2019-02-28T09:05:13.829Z,20.8
2019-02-28T09:06:12.709Z,20.8
2019-02-28T09:06:53.624Z,20.8
2019-02-28T09:07:44.301Z,20.8
2019-02-28T09:08:33.763Z,20.8
2019-02-28T09:09:24.073Z,20.8
2019-02-28T09:10:19.269Z,20.8
2019-02-28T09:11:03.883Z,20.8
2019-02-28T09:12:02.604Z,20.8
2019-02-28T09:12:44.550Z,20.7
2019-02-28T09:13:34.633Z,20.7
2019-02-28T09:14:25.306Z,20.7
2019-02-28T09:15:14.722Z,20.8
2019-02-28T09:16:10.107Z,20.8
2019-02-28T09:16:54.288Z,20.8
2019-02-28T09:17:44.603Z,20.8
2019-02-28T09:18:34.763Z,20.8
2019-02-28T09:19:24.438Z,20.8
2019-02-28T09:20:17.193Z,20.8
2019-02-28T09:21:05.139Z,20.8
2019-02-28T09:22:00.018Z,20.8
2019-02-28T09:22:44.415Z,20.8
2019-02-28T09:23:41.412Z,20.8
2019-02-28T09:24:27.040Z,20.8
2019-02-28T09:25:15.140Z,20.8
2019-02-28T09:26:06.632Z,20.8
2019-02-28T09:26:55.260Z,20.8
2019-02-28T09:27:46.586Z,20.8
2019-02-28T09:28:35.106Z,20.8
2019-02-28T09:29:29.115Z,20.8
2019-02-28T09:30:15.745Z,20.7
2019-02-28T09:31:12.555Z,20.8
2019-02-28T09:31:57.729Z,20.7
2019-02-28T09:32:51.302Z,20.8
2019-02-28T09:33:35.994Z,20.8
2019-02-28T09:34:25.030Z,20.8
2019-02-28T09:35:21.749Z,20.8
2019-02-28T09:36:05.647Z,20.8
2019-02-28T09:37:03.177Z,20.8
2019-02-28T09:37:45.990Z,20.8
2019-02-28T09:38:36.410Z,20.8
2019-02-28T09:39:26.935Z,20.8
2019-02-28T09:40:16.498Z,20.8
2019-02-28T09:41:11.394Z,20.8
2019-02-28T09:41:56.558Z,20.8
2019-02-28T09:42:54.687Z,20.8
2019-02-28T09:43:35.856Z,20.8
2019-02-28T09:44:26.759Z,20.8
2019-02-28T09:45:16.521Z,20.8
2019-02-28T09:46:06.297Z,20.8
2019-02-28T09:46:58.709Z,20.8
2019-02-28T09:47:46.642Z,20.8
2019-02-28T09:48:44.042Z,20.7
2019-02-28T09:49:26.262Z,20.7
2019-02-28T09:50:23.289Z,20.7
2019-02-28T09:51:06.344Z,20.7
2019-02-28T09:51:56.974Z,20.7
2019-02-28T09:52:49.219Z,20.7
2019-02-28T09:53:37.127Z,20.7
2019-02-28T09:54:31.704Z,20.7
2019-02-28T09:55:17.227Z,20.6
2019-02-28T09:56:13.634Z,20.6
2019-02-28T09:56:57.707Z,20.6
2019-02-28T09:57:53.160Z,20.6
2019-02-28T09:58:37.438Z,20.6
2019-02-28T09:59:27.511Z,20.7
2019-02-28T10:00:19.728Z,20.7
2019-02-28T10:01:07.671Z,20.7
2019-02-28T10:02:14.893Z,20.7
2019-02-28T10:02:54.041Z,20.8
2019-02-28T10:03:39.444Z,20.8
2019-02-28T10:04:33.973Z,20.8
2019-02-28T10:07:00.951Z,20.8
2019-02-28T10:07:45.370Z,20.8
2019-02-28T10:08:42.236Z,20.8
2019-02-28T10:09:25.728Z,20.8
2019-02-28T10:10:25.360Z,20.7
2019-02-28T10:11:22.057Z,20.7
2019-02-28T10:11:55.038Z,20.7
2019-02-28T10:12:49.437Z,20.7
2019-02-28T10:13:37.873Z,20.7
2019-02-28T10:14:31.743Z,20.7
2019-02-28T10:15:16.487Z,20.7
2019-02-28T10:16:05.135Z,20.8
2019-02-28T10:16:59.902Z,20.8
2019-02-28T10:17:48.278Z,20.8
2019-02-28T10:18:43.222Z,20.8
2019-02-28T10:19:28.375Z,20.8
2019-02-28T10:20:17.900Z,20.8
2019-02-28T10:21:09.000Z,20.8
2019-02-28T10:21:59.577Z,20.8
2019-02-28T10:22:52.734Z,20.8
2019-02-28T10:23:36.645Z,20.8
2019-02-28T10:24:34.794Z,20.8
2019-02-28T10:25:17.044Z,20.8
2019-02-28T10:26:06.839Z,20.8
2019-02-28T10:26:59.362Z,20.7
2019-02-28T10:27:46.957Z,20.7
2019-02-28T10:28:37.342Z,20.8
2019-02-28T10:29:27.043Z,20.8
2019-02-28T10:30:35.889Z,20.8
2019-02-28T10:31:07.154Z,20.8
2019-02-28T10:31:56.929Z,20.8
2019-02-28T10:32:50.561Z,20.8
2019-02-28T10:33:37.349Z,20.8
2019-02-28T10:34:35.333Z,20.8
2019-02-28T10:35:19.006Z,20.9
2019-02-28T10:36:14.323Z,20.9
2019-02-28T10:36:57.558Z,20.9
2019-02-28T10:37:47.910Z,20.9
2019-02-28T10:38:40.407Z,20.9
2019-02-28T10:39:27.784Z,20.8
2019-02-28T10:40:24.511Z,20.8
2019-02-28T10:41:08.176Z,20.8
2019-02-28T10:41:57.921Z,20.8
2019-02-28T10:42:50.482Z,20.8
2019-02-28T10:43:38.295Z,20.8
2019-02-28T10:44:34.975Z,20.8
2019-02-28T10:45:17.851Z,20.8
2019-02-28T10:46:07.943Z,20.8
2019-02-28T10:47:01.468Z,20.8
2019-02-28T10:47:48.294Z,20.8
2019-02-28T10:48:55.975Z,20.8
2019-02-28T10:49:32.141Z,20.8
2019-02-28T10:50:18.472Z,20.8
2019-02-28T10:51:20.856Z,20.8
2019-02-28T10:51:58.013Z,20.8
2019-02-28T10:52:48.712Z,20.8
2019-02-28T10:53:44.628Z,20.8
2019-02-28T10:54:29.068Z,20.7
2019-02-28T10:55:25.343Z,20.8
2019-02-28T10:56:08.868Z,20.8
2019-02-28T10:56:58.932Z,20.7
2019-02-28T10:57:49.248Z,20.7
2019-02-28T10:58:38.772Z,20.8
2019-02-28T10:59:31.743Z,20.8
2019-02-28T11:00:20.675Z,20.8
2019-02-28T11:01:15.757Z,20.8
2019-02-28T11:01:59.562Z,20.7
2019-02-28T11:02:58.503Z,20.8
2019-02-28T11:03:39.989Z,20.7
2019-02-28T11:04:33.142Z,20.7
2019-02-28T11:05:27.890Z,20.8
2019-02-28T11:06:09.942Z,20.7
2019-02-28T11:07:05.545Z,20.7
2019-02-28T11:07:52.016Z,20.7
2019-02-28T11:08:39.742Z,20.7
2019-02-28T11:09:32.485Z,20.7
2019-02-28T11:10:20.136Z,20.7
2019-02-28T11:11:16.617Z,20.8
2019-02-28T11:11:59.697Z,20.7
2019-02-28T11:12:50.049Z,20.7
2019-02-28T11:13:39.789Z,20.8
2019-02-28T11:14:30.159Z,20.8
2019-02-28T11:15:21.687Z,20.7
2019-02-28T11:16:10.252Z,20.7
2019-02-28T11:17:15.803Z,20.7
2019-02-28T11:17:51.659Z,20.7
2019-02-28T11:18:45.534Z,20.7
2019-02-28T11:19:30.242Z,20.6
2019-02-28T11:20:35.231Z,20.6
2019-02-28T11:21:09.751Z,20.6
2019-02-28T11:22:07.911Z,20.6
2019-02-28T11:22:50.687Z,20.6
2019-02-28T11:23:40.211Z,20.6
2019-02-28T11:24:34.109Z,20.7
2019-02-28T11:25:20.600Z,20.7
2019-02-28T11:26:17.304Z,20.7
2019-02-28T11:27:02.062Z,20.7
2019-02-28T11:27:50.216Z,20.8
2019-02-28T11:28:41.096Z,20.8
2019-02-28T11:29:31.138Z,20.8
2019-02-28T11:30:20.881Z,20.8
2019-02-28T11:31:13.228Z,20.8
2019-02-28T11:32:04.111Z,20.8
2019-02-28T11:32:51.395Z,20.8
2019-02-28T11:33:46.976Z,20.8
2019-02-28T11:34:31.814Z,20.7
2019-02-28T11:35:27.609Z,20.7
2019-02-28T11:36:13.236Z,20.7
2019-02-28T11:37:01.679Z,20.7
2019-02-28T11:37:52.528Z,20.7
2019-02-28T11:38:41.788Z,20.7
2019-02-28T11:39:40.105Z,20.7
2019-02-28T11:40:22.175Z,20.7
2019-02-28T11:41:12.218Z,20.7
2019-02-28T11:42:03.886Z,20.7
2019-02-28T11:42:52.371Z,20.7
2019-02-28T11:43:45.277Z,20.7
2019-02-28T11:44:32.238Z,20.6
2019-02-28T11:45:31.525Z,20.6
2019-02-28T11:46:12.293Z,20.7
2019-02-28T11:47:01.832Z,20.7
2019-02-28T11:47:52.489Z,20.6
2019-02-28T11:48:42.782Z,20.6
2019-02-28T11:49:36.022Z,20.6
2019-02-28T11:50:22.562Z,20.6
2019-02-28T11:51:18.500Z,20.6
2019-02-28T11:52:02.963Z,20.6
2019-02-28T11:52:52.273Z,20.6
2019-02-28T11:53:46.825Z,20.6
2019-02-28T11:54:32.284Z,20.6
2019-02-28T11:55:29.965Z,20.7
2019-02-28T11:56:12.148Z,20.6
2019-02-28T11:57:12.070Z,20.7
2019-02-28T11:57:52.811Z,20.7
2019-02-28T11:58:43.441Z,20.7
2019-02-28T11:59:32.646Z,20.6
2019-02-28T12:00:23.549Z,20.6
2019-02-28T12:01:17.147Z,20.6
2019-02-28T12:02:03.385Z,20.6
2019-02-28T12:03:09.584Z,20.6
2019-02-28T12:03:43.667Z,20.6
2019-02-28T12:04:33.544Z,20.6
2019-02-28T12:07:03.959Z,20.7
2019-02-28T12:07:45.537Z,20.7
2019-02-28T12:08:35.836Z,20.7
2019-02-28T12:09:27.007Z,20.8
2019-02-28T12:10:15.946Z,20.8
2019-02-28T12:11:09.691Z,20.8
2019-02-28T12:11:56.046Z,20.8
2019-02-28T12:12:51.941Z,20.8
2019-02-28T12:13:35.976Z,20.7
2019-02-28T12:14:31.643Z,20.7
2019-02-28T12:15:15.773Z,20.7
2019-02-28T12:16:06.068Z,20.7
2019-02-28T12:17:00.311Z,20.7
2019-02-28T12:17:46.206Z,20.6
2019-02-28T12:18:43.209Z,20.6
2019-02-28T12:19:25.733Z,20.6
2019-02-28T12:20:16.678Z,20.6
2019-02-28T12:21:11.473Z,20.6
2019-02-28T12:21:56.428Z,20.6
2019-02-28T12:22:55.723Z,20.6
2019-02-28T12:23:35.770Z,20.6
2019-02-28T12:24:26.373Z,20.6
2019-02-28T12:25:16.992Z,20.6
2019-02-28T12:26:06.809Z,20.6
2019-02-28T12:27:00.275Z,20.6
2019-02-28T12:27:47.151Z,20.6
2019-02-28T12:28:42.792Z,20.6
2019-02-28T12:29:27.350Z,20.6
2019-02-28T12:30:18.668Z,20.6
2019-02-28T12:31:08.032Z,20.6
2019-02-28T12:31:56.573Z,20.5
2019-02-28T12:32:53.570Z,20.5
2019-02-28T12:33:37.022Z,20.5
2019-02-28T12:34:31.985Z,20.5
2019-02-28T12:35:16.825Z,20.4
2019-02-28T12:36:07.145Z,20.5
2019-02-28T12:36:57.500Z,20.5
2019-02-28T12:37:47.290Z,20.5
2019-02-28T12:38:37.902Z,20.4
2019-02-28T12:39:29.673Z,20.4
2019-02-28T12:40:18.218Z,20.4
2019-02-28T12:41:07.219Z,20.4
2019-02-28T12:42:03.782Z,20.4
2019-02-28T12:42:47.885Z,20.4
2019-02-28T12:43:42.053Z,20.4
2019-02-28T12:44:27.708Z,20.4
2019-02-28T12:45:21.163Z,20.5
2019-02-28T12:46:07.597Z,20.6
2019-02-28T12:46:57.888Z,20.6
2019-02-28T12:47:50.452Z,20.6
2019-02-28T12:48:38.033Z,20.6
2019-02-28T12:49:33.747Z,20.6
2019-02-28T12:50:18.714Z,20.6
2019-02-28T12:51:12.987Z,20.6
2019-02-28T12:51:58.234Z,20.6
2019-02-28T12:52:54.279Z,20.6
2019-02-28T12:53:39.974Z,20.6
2019-02-28T12:54:37.228Z,20.6
2019-02-28T12:55:18.753Z,20.6
2019-02-28T12:56:14.209Z,20.6
2019-02-28T12:56:59.151Z,20.6
2019-02-28T12:57:49.216Z,20.5
2019-02-28T12:58:48.535Z,20.5
2019-02-28T12:59:29.378Z,20.5
2019-02-28T13:00:26.464Z,20.5
2019-02-28T13:01:09.559Z,20.5
2019-02-28T13:01:59.243Z,20.4
2019-02-28T13:02:52.996Z,20.4
2019-02-28T13:03:39.376Z,20.4
2019-02-28T13:04:32.480Z,20.4
2019-02-28T13:05:23.043Z,20.4
2019-02-28T13:06:09.565Z,20.4
2019-02-28T13:07:06.101Z,20.4
2019-02-28T13:07:51.978Z,20.4
2019-02-28T13:08:45.148Z,20.4
2019-02-28T13:09:31.653Z,20.3
2019-02-28T13:10:20.156Z,20.3
2019-02-28T13:11:10.935Z,20.4
2019-02-28T13:12:00.181Z,20.4
2019-02-28T13:13:10.028Z,20.4
2019-02-28T13:13:40.375Z,20.4
2019-02-28T13:14:30.258Z,20.4
2019-02-28T13:15:20.405Z,20.4
2019-02-28T13:16:10.452Z,20.4
2019-02-28T13:17:04.798Z,20.3
2019-02-28T13:17:50.081Z,20.3
2019-02-28T13:18:47.120Z,20.3
2019-02-28T13:19:30.480Z,20.3
2019-02-28T13:20:19.995Z,20.3
2019-02-28T13:21:18.290Z,20.3
2019-02-28T13:22:00.614Z,20.3
2019-02-28T13:22:50.219Z,20.3
2019-02-28T13:23:40.360Z,20.3
2019-02-28T13:24:31.055Z,20.3
2019-02-28T13:25:28.909Z,20.3
2019-02-28T13:26:11.141Z,20.3
2019-02-28T13:27:00.957Z,20.3
2019-02-28T13:27:54.382Z,20.3
2019-02-28T13:28:41.393Z,20.4
2019-02-28T13:29:38.849Z,20.3
2019-02-28T13:30:21.882Z,20.3
2019-02-28T13:31:11.317Z,20.3
2019-02-28T13:32:08.716Z,20.3
2019-02-28T13:32:51.659Z,20.3
2019-02-28T13:33:41.889Z,20.3
2019-02-28T13:34:36.941Z,20.3
2019-02-28T13:35:21.354Z,20.3
2019-02-28T13:36:14.429Z,20.3
2019-02-28T13:37:09.343Z,20.3
2019-02-28T13:37:52.361Z,20.3
2019-02-28T13:38:41.758Z,20.3
2019-02-28T13:39:39.183Z,20.3
2019-02-28T13:40:24.631Z,20.3
2019-02-28T13:41:12.123Z,20.4
2019-02-28T13:42:10.486Z,20.4
2019-02-28T13:42:52.341Z,20.4
2019-02-28T13:43:42.516Z,20.4
2019-02-28T13:44:41.147Z,20.4
2019-02-28T13:45:30.543Z,20.4
2019-02-28T13:46:15.401Z,20.4
2019-02-28T13:47:08.996Z,20.3
2019-02-28T13:47:54.449Z,20.3
2019-02-28T13:48:42.421Z,20.3
2019-02-28T13:49:32.518Z,20.3
2019-02-28T13:50:35.566Z,20.3
2019-02-28T13:51:15.894Z,20.3
2019-02-28T13:52:02.775Z,20.3
2019-02-28T13:53:02.429Z,20.3
2019-02-28T13:53:42.215Z,20.3
2019-02-28T13:54:34.318Z,20.3
2019-02-28T13:55:27.072Z,20.3
2019-02-28T13:56:12.708Z,20.3
2019-02-28T13:57:11.175Z,20.3
2019-02-28T13:57:53.797Z,20.3
2019-02-28T13:58:43.277Z,20.3
2019-02-28T13:59:38.533Z,20.3
2019-02-28T14:00:23.623Z,20.3
2019-02-28T14:01:13.342Z,20.3
2019-02-28T14:02:03.667Z,20.3
2019-02-28T14:02:53.735Z,20.3
2019-02-28T14:03:51.347Z,20.3
2019-02-28T14:04:33.885Z,20.3
2019-02-28T14:05:23.343Z,20.3
2019-02-28T14:07:55.135Z,20.3
2019-02-28T14:08:52.289Z,20.3
2019-02-28T14:09:35.762Z,20.3
2019-02-28T14:10:29.482Z,20.4
2019-02-28T14:11:17.700Z,20.4
2019-02-28T14:12:05.739Z,20.4
2019-02-28T14:13:03.057Z,20.4
2019-02-28T14:13:45.561Z,20.4
2019-02-28T14:14:42.130Z,20.4
2019-02-28T14:15:28.621Z,20.4
2019-02-28T14:16:15.967Z,20.4
2019-02-28T14:17:08.617Z,20.3
2019-02-28T14:17:55.719Z,20.4
2019-02-28T14:18:52.204Z,20.4
2019-02-28T14:19:35.854Z,20.3
2019-02-28T14:20:32.766Z,20.3
2019-02-28T14:21:16.241Z,20.3
2019-02-28T14:22:08.536Z,20.3
2019-02-28T14:22:56.104Z,20.3
2019-02-28T14:23:46.472Z,20.3
2019-02-28T14:24:38.886Z,20.3